createdAt,value
2022-10-18T00:02:08.588Z,86.83
2022-10-18T00:12:13.234Z,87.57
2022-10-18T00:22:16.463Z,90.40
2022-10-18T00:32:21.377Z,91.03
2022-10-18T00:42:29.742Z,87.53
2022-10-18T00:52:43.891Z,86.17
2022-10-18T01:02:48.831Z,93.03
2022-10-18T01:13:08.244Z,85.57
2022-10-18T01:23:21.475Z,90.93
2022-10-18T01:33:34.666Z,86.73
2022-10-18T01:43:40.346Z,84.67
2022-10-18T01:53:44.880Z,87.37
2022-10-18T02:03:51.925Z,84.70
2022-10-18T02:14:01.050Z,86.90
2022-10-18T02:24:05.133Z,82.20
2022-10-18T02:34:18.058Z,82.53
2022-10-18T02:44:21.339Z,94.23
2022-10-18T02:54:26.115Z,89.63
2022-10-18T03:04:29.392Z,92.93
2022-10-18T03:14:34.109Z,91.10
2022-10-18T03:24:37.370Z,86.30
2022-10-18T03:34:41.922Z,87.07
2022-10-18T03:44:45.178Z,89.27
2022-10-18T03:54:49.768Z,86.93
2022-10-18T04:04:53.239Z,84.07
2022-10-18T04:14:57.965Z,85.00
2022-10-18T04:25:01.473Z,87.47
2022-10-18T04:35:07.580Z,85.57
2022-10-18T04:45:12.119Z,86.67
2022-10-18T04:55:16.891Z,85.03
2022-10-18T05:05:20.144Z,88.27
2022-10-18T05:15:25.201Z,84.90
2022-10-18T05:25:28.479Z,85.10
2022-10-18T05:35:33.471Z,83.93
2022-10-18T05:45:36.709Z,86.50
2022-10-18T05:55:41.399Z,108.93
2022-10-18T06:05:44.628Z,104.97
2022-10-18T06:15:49.332Z,91.93
2022-10-18T06:25:52.697Z,90.17
2022-10-18T06:35:59.122Z,91.30
2022-10-18T06:46:05.151Z,97.50
2022-10-18T06:56:12.886Z,95.40
2022-10-18T07:06:18.877Z,97.27
2022-10-18T07:16:23.822Z,101.83
2022-10-18T07:26:29.527Z,106.87
2022-10-18T07:36:34.381Z,110.27
2022-10-18T07:46:37.606Z,109.70
2022-10-18T07:56:42.159Z,112.63
2022-10-18T08:06:45.434Z,114.73
2022-10-18T08:16:49.997Z,123.65
2022-10-18T08:26:53.261Z,123.03
2022-10-18T08:36:57.845Z,132.43
2022-10-18T08:47:05.777Z,126.63
2022-10-18T08:57:18.155Z,133.07
2022-10-18T09:07:51.590Z,124.15
2022-10-18T09:18:14.022Z,121.53
2022-10-18T09:28:28.861Z,131.85
2022-10-18T09:38:43.094Z,124.03
2022-10-18T09:48:52.539Z,126.05
2022-10-18T09:58:57.195Z,130.82
2022-10-18T10:09:06.629Z,138.43
2022-10-18T10:19:22.381Z,141.02
2022-10-18T10:29:57.720Z,135.73
2022-10-18T10:40:23.954Z,137.65
2022-10-18T10:50:31.758Z,141.27
2022-10-18T11:00:44.351Z,138.93
2022-10-18T11:11:02.352Z,146.13
2022-10-18T11:21:11.774Z,135.98
2022-10-18T11:31:25.063Z,138.02
2022-10-18T11:41:39.884Z,136.60
2022-10-18T11:52:09.654Z,136.60
2022-10-18T12:02:41.416Z,138.35
2022-10-18T12:12:53.946Z,155.60
2022-10-18T12:23:04.297Z,133.68
2022-10-18T12:33:28.898Z,138.38
2022-10-18T12:43:37.762Z,142.00
2022-10-18T12:53:42.278Z,142.07
2022-10-18T13:03:59.120Z,138.05
2022-10-18T13:14:27.307Z,137.57
2022-10-18T13:24:38.998Z,136.00
2022-10-18T13:34:42.623Z,132.57
2022-10-18T13:44:47.429Z,131.30
2022-10-18T13:55:15.720Z,130.80
2022-10-18T14:05:47.030Z,128.00
2022-10-18T14:15:53.214Z,135.70
2022-10-18T14:26:08.629Z,131.18
2022-10-18T14:36:16.022Z,125.55
2022-10-18T14:46:28.983Z,121.83
2022-10-18T14:56:39.596Z,121.70
2022-10-18T15:06:46.083Z,111.97
2022-10-18T15:16:50.866Z,104.63
2022-10-18T15:26:59.009Z,122.90
2022-10-18T15:37:19.274Z,116.23
2022-10-18T15:47:25.176Z,117.27
2022-10-18T15:57:32.557Z,118.80
2022-10-18T16:07:37.382Z,127.00
2022-10-18T16:17:40.618Z,110.90
2022-10-18T16:27:45.248Z,115.30
2022-10-18T16:37:48.595Z,116.23
2022-10-18T16:47:53.278Z,105.63
2022-10-18T16:57:56.634Z,104.27
2022-10-18T17:08:01.318Z,100.50
2022-10-18T17:18:06.079Z,103.70
2022-10-18T17:28:15.111Z,106.57
2022-10-18T17:38:18.347Z,110.13
2022-10-18T17:48:23.895Z,108.77
2022-10-18T17:58:27.291Z,107.73
2022-10-18T18:08:32.400Z,108.43
2022-10-18T18:18:35.800Z,109.77
2022-10-18T18:28:40.728Z,106.47
2022-10-18T18:38:44.811Z,105.53
2022-10-18T18:48:50.094Z,107.17
2022-10-18T18:58:54.560Z,121.97
2022-10-18T19:09:02.946Z,124.87
2022-10-18T19:19:09.061Z,119.93
2022-10-18T19:29:17.834Z,116.43
2022-10-18T19:39:23.828Z,116.13
2022-10-18T19:49:29.030Z,110.10
2022-10-18T19:59:32.526Z,109.87
2022-10-18T20:09:37.183Z,105.07
2022-10-18T20:19:40.518Z,108.87
2022-10-18T20:29:45.283Z,110.87
2022-10-18T20:39:48.704Z,108.70
2022-10-18T20:49:53.374Z,110.93
2022-10-18T20:59:56.803Z,104.30
2022-10-18T21:10:01.717Z,92.30
2022-10-18T21:20:06.354Z,92.33
2022-10-18T21:40:20.848Z,91.37
2022-10-18T21:50:49.982Z,87.30
2022-10-18T22:00:53.436Z,96.03
2022-10-18T22:10:58.708Z,93.67
2022-10-18T22:21:05.010Z,84.63
2022-10-18T22:31:16.435Z,85.80
2022-10-18T22:41:20.303Z,90.63
2022-10-18T22:51:24.998Z,87.00
2022-10-18T23:01:28.297Z,90.10
2022-10-18T23:11:34.515Z,89.53
2022-10-18T23:21:37.808Z,85.47
2022-10-18T23:31:42.396Z,87.20
2022-10-18T23:41:45.643Z,89.33
2022-10-18T23:51:50.318Z,91.47
